sensor_id;sensor_type;location;lat;lon;timestamp;temperature;humidity
67050;DHT22;53955;52.442;13.284;2022-11-18T00:00:23;4.40;77.60
67050;DHT22;53955;52.442;13.284;2022-11-18T00:02:50;4.20;76.50
67050;DHT22;53955;52.442;13.284;2022-11-18T00:05:16;4.40;77.10
67050;DHT22;53955;52.442;13.284;2022-11-18T00:07:43;4.20;76.50
67050;DHT22;53955;52.442;13.284;2022-11-18T00:10:09;4.20;77.30
67050;DHT22;53955;52.442;13.284;2022-11-18T00:12:36;4.20;77.40
67050;DHT22;53955;52.442;13.284;2022-11-18T00:15:22;4.30;77.70
67050;DHT22;53955;52.442;13.284;2022-11-18T00:17:48;4.30;78.20
67050;DHT22;53955;52.442;13.284;2022-11-18T00:20:15;4.70;77.70
67050;DHT22;53955;52.442;13.284;2022-11-18T00:22:41;4.70;75.60
67050;DHT22;53955;52.442;13.284;2022-11-18T00:25:08;4.50;75.90
67050;DHT22;53955;52.442;13.284;2022-11-18T00:27:35;4.40;76.70
67050;DHT22;53955;52.442;13.284;2022-11-18T00:30:02;4.50;76.40
67050;DHT22;53955;52.442;13.284;2022-11-18T00:32:30;4.30;76.60
67050;DHT22;53955;52.442;13.284;2022-11-18T00:34:56;4.20;76.70
67050;DHT22;53955;52.442;13.284;2022-11-18T00:37:23;4.20;77.10
67050;DHT22;53955;52.442;13.284;2022-11-18T00:39:49;4.10;77.40
67050;DHT22;53955;52.442;13.284;2022-11-18T00:42:16;4.40;77.40
67050;DHT22;53955;52.442;13.284;2022-11-18T00:45:00;4.40;76.80
67050;DHT22;53955;52.442;13.284;2022-11-18T00:47:26;4.40;76.70
67050;DHT22;53955;52.442;13.284;2022-11-18T00:49:54;4.40;76.20
67050;DHT22;53955;52.442;13.284;2022-11-18T00:52:21;4.30;77.00
67050;DHT22;53955;52.442;13.284;2022-11-18T00:54:47;4.20;75.70
67050;DHT22;53955;52.442;13.284;2022-11-18T00:57:14;4.30;76.10
67050;DHT22;53955;52.442;13.284;2022-11-18T00:59:40;4.30;76.40
67050;DHT22;53955;52.442;13.284;2022-11-18T01:02:07;4.40;75.50
67050;DHT22;53955;52.442;13.284;2022-11-18T01:04:33;4.30;75.60
67050;DHT22;53955;52.442;13.284;2022-11-18T01:07:01;4.20;74.40
67050;DHT22;53955;52.442;13.284;2022-11-18T01:09:28;4.00;75.20
67050;DHT22;53955;52.442;13.284;2022-11-18T01:11:55;4.10;75.70
67050;DHT22;53955;52.442;13.284;2022-11-18T01:14:39;4.00;75.30
67050;DHT22;53955;52.442;13.284;2022-11-18T01:17:06;4.30;75.00
67050;DHT22;53955;52.442;13.284;2022-11-18T01:19:32;4.10;74.80
67050;DHT22;53955;52.442;13.284;2022-11-18T01:21:59;4.20;75.00
67050;DHT22;53955;52.442;13.284;2022-11-18T01:24:28;4.00;75.80
67050;DHT22;53955;52.442;13.284;2022-11-18T01:26:55;3.80;75.00
67050;DHT22;53955;52.442;13.284;2022-11-18T01:29:22;4.10;75.70
67050;DHT22;53955;52.442;13.284;2022-11-18T01:31:48;4.00;74.50
67050;DHT22;53955;52.442;13.284;2022-11-18T01:34:15;3.90;74.30
67050;DHT22;53955;52.442;13.284;2022-11-18T01:36:41;4.20;74.50
67050;DHT22;53955;52.442;13.284;2022-11-18T01:39:08;4.00;74.10
67050;DHT22;53955;52.442;13.284;2022-11-18T01:41:36;3.80;73.90
67050;DHT22;53955;52.442;13.284;2022-11-18T01:44:05;3.80;74.90
67050;DHT22;53955;52.442;13.284;2022-11-18T01:46:33;4.00;73.80
67050;DHT22;53955;52.442;13.284;2022-11-18T01:49:03;4.00;74.70
67050;DHT22;53955;52.442;13.284;2022-11-18T01:51:34;4.00;74.40
67050;DHT22;53955;52.442;13.284;2022-11-18T01:54:05;4.00;74.60
67050;DHT22;53955;52.442;13.284;2022-11-18T01:56:40;4.30;74.30
67050;DHT22;53955;52.442;13.284;2022-11-18T01:59:11;4.20;73.40
67050;DHT22;53955;52.442;13.284;2022-11-18T02:01:38;4.20;73.60
67050;DHT22;53955;52.442;13.284;2022-11-18T02:04:06;4.10;72.60
67050;DHT22;53955;52.442;13.284;2022-11-18T02:06:33;4.10;73.10
67050;DHT22;53955;52.442;13.284;2022-11-18T02:09:00;3.90;73.30
67050;DHT22;53955;52.442;13.284;2022-11-18T02:11:27;3.90;72.20
67050;DHT22;53955;52.442;13.284;2022-11-18T02:14:13;3.90;72.80
67050;DHT22;53955;52.442;13.284;2022-11-18T02:16:50;3.60;72.80
67050;DHT22;53955;52.442;13.284;2022-11-18T02:19:37;3.70;73.00
67050;DHT22;53955;52.442;13.284;2022-11-18T02:22:18;3.70;72.70
67050;DHT22;53955;52.442;13.284;2022-11-18T02:24:55;3.80;72.50
67050;DHT22;53955;52.442;13.284;2022-11-18T02:27:56;3.70;71.40
67050;DHT22;53955;52.442;13.284;2022-11-18T02:30:32;4.10;71.80
67050;DHT22;53955;52.442;13.284;2022-11-18T02:33:04;3.80;72.00
67050;DHT22;53955;52.442;13.284;2022-11-18T02:35:38;3.70;72.10
67050;DHT22;53955;52.442;13.284;2022-11-18T02:38:09;3.90;72.60
67050;DHT22;53955;52.442;13.284;2022-11-18T02:40:39;3.90;71.70
67050;DHT22;53955;52.442;13.284;2022-11-18T02:43:11;3.90;71.00
67050;DHT22;53955;52.442;13.284;2022-11-18T02:45:43;3.90;72.10
67050;DHT22;53955;52.442;13.284;2022-11-18T02:48:12;3.60;71.30
67050;DHT22;53955;52.442;13.284;2022-11-18T02:50:41;3.50;71.80
67050;DHT22;53955;52.442;13.284;2022-11-18T02:53:09;3.60;73.00
67050;DHT22;53955;52.442;13.284;2022-11-18T02:55:37;3.70;72.00
67050;DHT22;53955;52.442;13.284;2022-11-18T02:58:06;3.70;71.10
67050;DHT22;53955;52.442;13.284;2022-11-18T03:00:35;3.40;72.40
67050;DHT22;53955;52.442;13.284;2022-11-18T03:03:23;3.60;72.70
67050;DHT22;53955;52.442;13.284;2022-11-18T03:05:54;3.60;72.80
67050;DHT22;53955;52.442;13.284;2022-11-18T03:08:28;3.50;73.20
67050;DHT22;53955;52.442;13.284;2022-11-18T03:11:04;3.50;72.60
67050;DHT22;53955;52.442;13.284;2022-11-18T03:13:36;3.50;72.40
67050;DHT22;53955;52.442;13.284;2022-11-18T03:16:09;3.50;73.50
67050;DHT22;53955;52.442;13.284;2022-11-18T03:18:42;3.60;72.80
67050;DHT22;53955;52.442;13.284;2022-11-18T03:21:15;3.70;72.60
67050;DHT22;53955;52.442;13.284;2022-11-18T03:23:50;3.90;72.10
67050;DHT22;53955;52.442;13.284;2022-11-18T03:26:21;3.70;72.10
67050;DHT22;53955;52.442;13.284;2022-11-18T03:28:55;3.70;71.70
67050;DHT22;53955;52.442;13.284;2022-11-18T03:31:28;3.30;72.10
67050;DHT22;53955;52.442;13.284;2022-11-18T03:33:59;3.50;71.90
67050;DHT22;53955;52.442;13.284;2022-11-18T03:36:32;3.30;71.50
67050;DHT22;53955;52.442;13.284;2022-11-18T03:39:02;3.60;71.00
67050;DHT22;53955;52.442;13.284;2022-11-18T03:41:35;3.50;71.00
67050;DHT22;53955;52.442;13.284;2022-11-18T03:44:06;3.30;71.60
67050;DHT22;53955;52.442;13.284;2022-11-18T03:46:38;3.60;71.50
67050;DHT22;53955;52.442;13.284;2022-11-18T03:49:09;3.60;70.60
67050;DHT22;53955;52.442;13.284;2022-11-18T03:51:41;3.70;71.00
67050;DHT22;53955;52.442;13.284;2022-11-18T03:54:11;3.70;72.00
67050;DHT22;53955;52.442;13.284;2022-11-18T03:56:42;3.90;71.90
67050;DHT22;53955;52.442;13.284;2022-11-18T03:59:13;3.70;71.40
67050;DHT22;53955;52.442;13.284;2022-11-18T04:01:45;3.50;71.70
67050;DHT22;53955;52.442;13.284;2022-11-18T04:04:14;3.60;71.40
67050;DHT22;53955;52.442;13.284;2022-11-18T04:06:44;3.60;71.80
67050;DHT22;53955;52.442;13.284;2022-11-18T04:09:17;3.40;71.10
67050;DHT22;53955;52.442;13.284;2022-11-18T04:11:47;3.40;72.00
67050;DHT22;53955;52.442;13.284;2022-11-18T04:14:32;3.40;72.50
67050;DHT22;53955;52.442;13.284;2022-11-18T04:16:59;3.40;71.40
67050;DHT22;53955;52.442;13.284;2022-11-18T04:19:27;3.40;72.50
67050;DHT22;53955;52.442;13.284;2022-11-18T04:21:53;3.30;72.40
67050;DHT22;53955;52.442;13.284;2022-11-18T04:24:20;3.40;71.80
67050;DHT22;53955;52.442;13.284;2022-11-18T04:26:46;3.20;72.10
67050;DHT22;53955;52.442;13.284;2022-11-18T04:29:13;3.30;71.70
67050;DHT22;53955;52.442;13.284;2022-11-18T04:31:39;3.20;71.80
67050;DHT22;53955;52.442;13.284;2022-11-18T04:34:06;3.40;75.90
67050;DHT22;53955;52.442;13.284;2022-11-18T04:36:36;3.10;71.90
67050;DHT22;53955;52.442;13.284;2022-11-18T04:39:03;3.20;71.50
67050;DHT22;53955;52.442;13.284;2022-11-18T04:41:29;3.20;71.50
67050;DHT22;53955;52.442;13.284;2022-11-18T04:44:14;2.90;72.10
67050;DHT22;53955;52.442;13.284;2022-11-18T04:46:41;3.00;72.40
67050;DHT22;53955;52.442;13.284;2022-11-18T04:49:08;3.30;71.90
67050;DHT22;53955;52.442;13.284;2022-11-18T04:51:37;3.10;71.50
67050;DHT22;53955;52.442;13.284;2022-11-18T04:54:04;3.30;71.50
67050;DHT22;53955;52.442;13.284;2022-11-18T04:56:31;3.10;71.70
67050;DHT22;53955;52.442;13.284;2022-11-18T04:58:58;3.20;71.50
67050;DHT22;53955;52.442;13.284;2022-11-18T05:01:25;3.10;71.20
67050;DHT22;53955;52.442;13.284;2022-11-18T05:03:52;3.00;72.40
67050;DHT22;53955;52.442;13.284;2022-11-18T05:06:19;2.90;72.80
67050;DHT22;53955;52.442;13.284;2022-11-18T05:08:47;3.00;72.00
67050;DHT22;53955;52.442;13.284;2022-11-18T05:11:14;3.10;72.40
67050;DHT22;53955;52.442;13.284;2022-11-18T05:14:04;3.10;72.20
67050;DHT22;53955;52.442;13.284;2022-11-18T05:16:30;3.30;71.60
67050;DHT22;53955;52.442;13.284;2022-11-18T05:18:57;2.90;72.00
67050;DHT22;53955;52.442;13.284;2022-11-18T05:21:23;2.90;72.10
67050;DHT22;53955;52.442;13.284;2022-11-18T05:23:51;3.10;71.80
67050;DHT22;53955;52.442;13.284;2022-11-18T05:26:18;3.10;71.80
67050;DHT22;53955;52.442;13.284;2022-11-18T05:28:44;2.60;71.10
67050;DHT22;53955;52.442;13.284;2022-11-18T05:31:13;2.80;71.60
67050;DHT22;53955;52.442;13.284;2022-11-18T05:33:40;2.70;72.30
67050;DHT22;53955;52.442;13.284;2022-11-18T05:36:09;2.80;73.00
67050;DHT22;53955;52.442;13.284;2022-11-18T05:38:36;2.80;72.70
67050;DHT22;53955;52.442;13.284;2022-11-18T05:41:04;2.70;72.40
67050;DHT22;53955;52.442;13.284;2022-11-18T05:43:33;3.10;73.20
67050;DHT22;53955;52.442;13.284;2022-11-18T05:45:59;2.90;72.20
67050;DHT22;53955;52.442;13.284;2022-11-18T05:48:26;3.10;72.40
67050;DHT22;53955;52.442;13.284;2022-11-18T05:50:54;3.00;73.00
67050;DHT22;53955;52.442;13.284;2022-11-18T05:53:22;3.10;72.60
67050;DHT22;53955;52.442;13.284;2022-11-18T05:55:53;3.00;72.60
67050;DHT22;53955;52.442;13.284;2022-11-18T05:58:23;3.20;72.80
67050;DHT22;53955;52.442;13.284;2022-11-18T06:00:51;3.10;73.20
67050;DHT22;53955;52.442;13.284;2022-11-18T06:03:21;3.30;72.10
67050;DHT22;53955;52.442;13.284;2022-11-18T06:05:48;3.40;71.20
67050;DHT22;53955;52.442;13.284;2022-11-18T06:08:18;3.40;70.90
67050;DHT22;53955;52.442;13.284;2022-11-18T06:10:47;3.30;70.60
67050;DHT22;53955;52.442;13.284;2022-11-18T06:13:16;3.20;71.00
67050;DHT22;53955;52.442;13.284;2022-11-18T06:15:46;3.30;69.80
67050;DHT22;53955;52.442;13.284;2022-11-18T06:18:18;3.30;70.10
67050;DHT22;53955;52.442;13.284;2022-11-18T06:20:47;3.00;69.40
67050;DHT22;53955;52.442;13.284;2022-11-18T06:23:15;3.00;69.00
67050;DHT22;53955;52.442;13.284;2022-11-18T06:25:42;3.10;68.50
67050;DHT22;53955;52.442;13.284;2022-11-18T06:28:10;3.00;68.50
67050;DHT22;53955;52.442;13.284;2022-11-18T06:30:37;2.80;68.10
67050;DHT22;53955;52.442;13.284;2022-11-18T06:33:05;2.80;65.90
67050;DHT22;53955;52.442;13.284;2022-11-18T06:35:32;2.50;67.40
67050;DHT22;53955;52.442;13.284;2022-11-18T06:37:59;2.70;68.70
67050;DHT22;53955;52.442;13.284;2022-11-18T06:40:26;2.40;67.50
67050;DHT22;53955;52.442;13.284;2022-11-18T06:42:52;2.50;67.70
67050;DHT22;53955;52.442;13.284;2022-11-18T06:45:36;2.70;67.70
67050;DHT22;53955;52.442;13.284;2022-11-18T06:48:05;2.70;67.70
67050;DHT22;53955;52.442;13.284;2022-11-18T06:50:30;2.80;67.10
67050;DHT22;53955;52.442;13.284;2022-11-18T06:52:59;2.90;66.30
67050;DHT22;53955;52.442;13.284;2022-11-18T06:55:25;2.80;65.50
67050;DHT22;53955;52.442;13.284;2022-11-18T06:57:54;2.70;66.10
67050;DHT22;53955;52.442;13.284;2022-11-18T07:00:21;2.60;67.80
67050;DHT22;53955;52.442;13.284;2022-11-18T07:02:47;2.90;68.50
67050;DHT22;53955;52.442;13.284;2022-11-18T07:05:15;2.70;68.60
67050;DHT22;53955;52.442;13.284;2022-11-18T07:07:42;3.00;67.70
67050;DHT22;53955;52.442;13.284;2022-11-18T07:10:09;2.90;66.50
67050;DHT22;53955;52.442;13.284;2022-11-18T07:12:35;2.80;65.60
67050;DHT22;53955;52.442;13.284;2022-11-18T07:15:02;2.90;64.40
67050;DHT22;53955;52.442;13.284;2022-11-18T07:17:29;2.90;64.60
67050;DHT22;53955;52.442;13.284;2022-11-18T07:19:55;2.70;63.90
67050;DHT22;53955;52.442;13.284;2022-11-18T07:22:23;2.60;64.80
67050;DHT22;53955;52.442;13.284;2022-11-18T07:24:50;2.30;65.90
67050;DHT22;53955;52.442;13.284;2022-11-18T07:27:16;2.40;68.00
67050;DHT22;53955;52.442;13.284;2022-11-18T07:29:43;2.30;67.40
67050;DHT22;53955;52.442;13.284;2022-11-18T07:32:10;2.00;68.30
67050;DHT22;53955;52.442;13.284;2022-11-18T07:34:36;1.80;69.40
67050;DHT22;53955;52.442;13.284;2022-11-18T07:37:03;1.70;70.90
67050;DHT22;53955;52.442;13.284;2022-11-18T07:39:31;2.00;70.50
67050;DHT22;53955;52.442;13.284;2022-11-18T07:41:57;2.20;70.50
67050;DHT22;53955;52.442;13.284;2022-11-18T07:44:24;2.20;69.50
67050;DHT22;53955;52.442;13.284;2022-11-18T07:46:50;2.50;68.20
67050;DHT22;53955;52.442;13.284;2022-11-18T07:49:17;2.50;67.70
67050;DHT22;53955;52.442;13.284;2022-11-18T07:51:43;2.40;64.40
67050;DHT22;53955;52.442;13.284;2022-11-18T07:54:11;2.40;65.70
67050;DHT22;53955;52.442;13.284;2022-11-18T07:56:39;2.20;64.90
67050;DHT22;53955;52.442;13.284;2022-11-18T07:59:06;2.30;64.30
67050;DHT22;53955;52.442;13.284;2022-11-18T08:01:33;2.50;64.10
67050;DHT22;53955;52.442;13.284;2022-11-18T08:04:04;2.30;63.40
67050;DHT22;53955;52.442;13.284;2022-11-18T08:06:32;2.50;62.40
67050;DHT22;53955;52.442;13.284;2022-11-18T08:08:59;2.00;62.80
67050;DHT22;53955;52.442;13.284;2022-11-18T08:11:25;2.50;63.80
67050;DHT22;53955;52.442;13.284;2022-11-18T08:13:53;2.40;63.70
67050;DHT22;53955;52.442;13.284;2022-11-18T08:16:22;2.80;63.40
67050;DHT22;53955;52.442;13.284;2022-11-18T08:18:50;2.60;62.80
67050;DHT22;53955;52.442;13.284;2022-11-18T08:21:18;2.90;62.20
67050;DHT22;53955;52.442;13.284;2022-11-18T08:23:49;3.10;61.00
67050;DHT22;53955;52.442;13.284;2022-11-18T08:26:15;2.70;60.50
67050;DHT22;53955;52.442;13.284;2022-11-18T08:28:43;3.10;59.70
67050;DHT22;53955;52.442;13.284;2022-11-18T08:31:12;2.90;60.10
67050;DHT22;53955;52.442;13.284;2022-11-18T08:33:39;2.40;59.60
67050;DHT22;53955;52.442;13.284;2022-11-18T08:36:07;2.50;61.80
67050;DHT22;53955;52.442;13.284;2022-11-18T08:38:34;2.50;60.40
67050;DHT22;53955;52.442;13.284;2022-11-18T08:41:01;2.60;60.50
67050;DHT22;53955;52.442;13.284;2022-11-18T08:43:29;2.80;60.60
67050;DHT22;53955;52.442;13.284;2022-11-18T08:45:56;2.70;60.30
67050;DHT22;53955;52.442;13.284;2022-11-18T08:48:24;2.60;59.50
67050;DHT22;53955;52.442;13.284;2022-11-18T08:50:51;2.80;60.50
67050;DHT22;53955;52.442;13.284;2022-11-18T08:53:17;2.90;59.00
67050;DHT22;53955;52.442;13.284;2022-11-18T08:55:44;2.70;59.10
67050;DHT22;53955;52.442;13.284;2022-11-18T08:58:10;3.00;59.70
67050;DHT22;53955;52.442;13.284;2022-11-18T09:00:37;2.50;60.90
67050;DHT22;53955;52.442;13.284;2022-11-18T09:03:04;2.70;58.80
67050;DHT22;53955;52.442;13.284;2022-11-18T09:05:32;2.70;59.50
67050;DHT22;53955;52.442;13.284;2022-11-18T09:07:58;2.60;59.10
67050;DHT22;53955;52.442;13.284;2022-11-18T09:10:25;2.30;59.40
67050;DHT22;53955;52.442;13.284;2022-11-18T09:12:51;2.60;59.80
67050;DHT22;53955;52.442;13.284;2022-11-18T09:15:18;2.30;60.30
67050;DHT22;53955;52.442;13.284;2022-11-18T09:17:44;2.70;59.60
67050;DHT22;53955;52.442;13.284;2022-11-18T09:20:11;2.40;59.40
67050;DHT22;53955;52.442;13.284;2022-11-18T09:22:39;2.40;59.40
67050;DHT22;53955;52.442;13.284;2022-11-18T09:25:06;2.50;60.60
67050;DHT22;53955;52.442;13.284;2022-11-18T09:27:33;2.30;58.70
67050;DHT22;53955;52.442;13.284;2022-11-18T09:30:00;2.20;59.80
67050;DHT22;53955;52.442;13.284;2022-11-18T09:32:26;2.10;59.70
67050;DHT22;53955;52.442;13.284;2022-11-18T09:34:53;2.10;60.00
67050;DHT22;53955;52.442;13.284;2022-11-18T09:37:19;2.00;59.90
67050;DHT22;53955;52.442;13.284;2022-11-18T09:39:48;2.00;60.30
67050;DHT22;53955;52.442;13.284;2022-11-18T09:42:23;1.90;59.00
67050;DHT22;53955;52.442;13.284;2022-11-18T09:45:04;2.00;60.30
67050;DHT22;53955;52.442;13.284;2022-11-18T09:47:32;2.00;59.80
67050;DHT22;53955;52.442;13.284;2022-11-18T09:50:00;2.00;59.80
67050;DHT22;53955;52.442;13.284;2022-11-18T09:52:29;2.00;60.20
67050;DHT22;53955;52.442;13.284;2022-11-18T09:54:58;2.10;59.40
67050;DHT22;53955;52.442;13.284;2022-11-18T09:57:34;2.40;59.30
67050;DHT22;53955;52.442;13.284;2022-11-18T10:00:08;2.40;58.80
67050;DHT22;53955;52.442;13.284;2022-11-18T10:02:50;2.30;58.70
67050;DHT22;53955;52.442;13.284;2022-11-18T10:05:19;2.20;60.00
67050;DHT22;53955;52.442;13.284;2022-11-18T10:07:53;2.60;59.60
67050;DHT22;53955;52.442;13.284;2022-11-18T10:10:28;2.60;59.40
67050;DHT22;53955;52.442;13.284;2022-11-18T10:13:03;2.80;59.60
67050;DHT22;53955;52.442;13.284;2022-11-18T10:15:36;2.40;58.90
67050;DHT22;53955;52.442;13.284;2022-11-18T10:18:17;2.10;60.10
67050;DHT22;53955;52.442;13.284;2022-11-18T10:20:52;1.90;60.50
67050;DHT22;53955;52.442;13.284;2022-11-18T10:23:23;1.90;60.60
67050;DHT22;53955;52.442;13.284;2022-11-18T10:25:53;2.00;61.00
67050;DHT22;53955;52.442;13.284;2022-11-18T10:28:22;2.00;60.80
67050;DHT22;53955;52.442;13.284;2022-11-18T10:30:49;2.00;60.40
67050;DHT22;53955;52.442;13.284;2022-11-18T10:33:26;2.10;59.50
67050;DHT22;53955;52.442;13.284;2022-11-18T10:36:13;2.10;60.60
67050;DHT22;53955;52.442;13.284;2022-11-18T10:38:44;2.10;59.60
67050;DHT22;53955;52.442;13.284;2022-11-18T10:41:14;2.40;60.10
67050;DHT22;53955;52.442;13.284;2022-11-18T10:43:44;2.50;59.70
67050;DHT22;53955;52.442;13.284;2022-11-18T10:46:22;2.50;59.00
67050;DHT22;53955;52.442;13.284;2022-11-18T10:49:11;2.40;59.30
67050;DHT22;53955;52.442;13.284;2022-11-18T10:51:40;2.70;59.60
67050;DHT22;53955;52.442;13.284;2022-11-18T10:54:10;2.60;60.30
67050;DHT22;53955;52.442;13.284;2022-11-18T10:56:49;2.40;59.60
67050;DHT22;53955;52.442;13.284;2022-11-18T10:59:23;2.40;59.70
67050;DHT22;53955;52.442;13.284;2022-11-18T11:01:59;2.60;59.80
67050;DHT22;53955;52.442;13.284;2022-11-18T11:04:27;2.50;59.10
67050;DHT22;53955;52.442;13.284;2022-11-18T11:06:56;2.20;58.90
67050;DHT22;53955;52.442;13.284;2022-11-18T11:09:26;2.10;58.10
67050;DHT22;53955;52.442;13.284;2022-11-18T11:11:59;2.20;58.80
67050;DHT22;53955;52.442;13.284;2022-11-18T11:14:31;1.90;59.70
67050;DHT22;53955;52.442;13.284;2022-11-18T11:17:04;2.20;59.60
67050;DHT22;53955;52.442;13.284;2022-11-18T11:19:39;2.10;59.80
67050;DHT22;53955;52.442;13.284;2022-11-18T11:22:09;2.20;59.30
67050;DHT22;53955;52.442;13.284;2022-11-18T11:24:36;2.00;59.40
67050;DHT22;53955;52.442;13.284;2022-11-18T11:27:13;2.20;59.50
67050;DHT22;53955;52.442;13.284;2022-11-18T11:30:01;2.40;58.60
67050;DHT22;53955;52.442;13.284;2022-11-18T11:32:35;2.40;57.20
67050;DHT22;53955;52.442;13.284;2022-11-18T11:35:11;2.40;57.90
67050;DHT22;53955;52.442;13.284;2022-11-18T11:37:50;2.30;57.80
67050;DHT22;53955;52.442;13.284;2022-11-18T11:40:26;2.20;58.20
67050;DHT22;53955;52.442;13.284;2022-11-18T11:43:05;2.20;58.90
67050;DHT22;53955;52.442;13.284;2022-11-18T11:45:38;1.90;59.80
67050;DHT22;53955;52.442;13.284;2022-11-18T11:48:21;2.10;59.30
67050;DHT22;53955;52.442;13.284;2022-11-18T11:50:52;2.20;59.20
67050;DHT22;53955;52.442;13.284;2022-11-18T11:53:34;2.00;59.20
67050;DHT22;53955;52.442;13.284;2022-11-18T11:56:10;2.10;60.00
67050;DHT22;53955;52.442;13.284;2022-11-18T11:59:00;2.30;60.30
67050;DHT22;53955;52.442;13.284;2022-11-18T12:01:34;2.40;59.70
67050;DHT22;53955;52.442;13.284;2022-11-18T12:04:11;2.60;59.80
67050;DHT22;53955;52.442;13.284;2022-11-18T12:06:40;2.40;59.70
67050;DHT22;53955;52.442;13.284;2022-11-18T12:09:14;2.70;59.70
67050;DHT22;53955;52.442;13.284;2022-11-18T12:11:49;2.70;58.80
67050;DHT22;53955;52.442;13.284;2022-11-18T12:14:27;2.60;58.50
67050;DHT22;53955;52.442;13.284;2022-11-18T12:17:02;2.60;57.70
67050;DHT22;53955;52.442;13.284;2022-11-18T12:19:36;2.50;57.90
67050;DHT22;53955;52.442;13.284;2022-11-18T12:22:04;2.40;58.80
67050;DHT22;53955;52.442;13.284;2022-11-18T12:24:38;2.60;58.90
67050;DHT22;53955;52.442;13.284;2022-11-18T12:30:02;2.40;59.10
67050;DHT22;53955;52.442;13.284;2022-11-18T12:32:31;2.60;58.60
67050;DHT22;53955;52.442;13.284;2022-11-18T12:35:03;2.50;57.50
67050;DHT22;53955;52.442;13.284;2022-11-18T12:37:41;2.70;56.80
67050;DHT22;53955;52.442;13.284;2022-11-18T12:40:10;2.50;56.20
67050;DHT22;53955;52.442;13.284;2022-11-18T12:42:40;2.50;56.20
67050;DHT22;53955;52.442;13.284;2022-11-18T12:45:52;2.30;57.00
67050;DHT22;53955;52.442;13.284;2022-11-18T12:48:37;2.40;56.90
67050;DHT22;53955;52.442;13.284;2022-11-18T12:54:24;2.40;55.50
67050;DHT22;53955;52.442;13.284;2022-11-18T12:56:51;2.40;56.60
67050;DHT22;53955;52.442;13.284;2022-11-18T12:59:26;2.60;56.20
67050;DHT22;53955;52.442;13.284;2022-11-18T13:02:14;2.70;54.60
67050;DHT22;53955;52.442;13.284;2022-11-18T13:04:43;2.80;53.60
67050;DHT22;53955;52.442;13.284;2022-11-18T13:07:11;2.80;54.00
67050;DHT22;53955;52.442;13.284;2022-11-18T13:10:00;2.80;53.50
67050;DHT22;53955;52.442;13.284;2022-11-18T13:12:28;2.70;53.90
67050;DHT22;53955;52.442;13.284;2022-11-18T13:14:57;2.70;53.80
67050;DHT22;53955;52.442;13.284;2022-11-18T13:17:46;2.60;54.00
67050;DHT22;53955;52.442;13.284;2022-11-18T13:20:23;2.70;54.30
67050;DHT22;53955;52.442;13.284;2022-11-18T13:22:52;2.40;55.40
67050;DHT22;53955;52.442;13.284;2022-11-18T13:25:37;2.50;54.50
67050;DHT22;53955;52.442;13.284;2022-11-18T13:28:10;2.20;54.70
67050;DHT22;53955;52.442;13.284;2022-11-18T13:30:48;2.60;54.20
67050;DHT22;53955;52.442;13.284;2022-11-18T13:33:17;2.40;53.70
67050;DHT22;53955;52.442;13.284;2022-11-18T13:35:44;2.60;54.60
67050;DHT22;53955;52.442;13.284;2022-11-18T13:38:23;2.60;53.50
67050;DHT22;53955;52.442;13.284;2022-11-18T13:40:50;2.40;53.60
67050;DHT22;53955;52.442;13.284;2022-11-18T13:43:37;2.50;53.10
67050;DHT22;53955;52.442;13.284;2022-11-18T13:46:07;2.50;53.60
67050;DHT22;53955;52.442;13.284;2022-11-18T13:48:40;2.40;53.20
67050;DHT22;53955;52.442;13.284;2022-11-18T13:51:11;2.30;53.80
67050;DHT22;53955;52.442;13.284;2022-11-18T13:53:39;2.40;54.00
67050;DHT22;53955;52.442;13.284;2022-11-18T13:56:15;2.70;54.10
67050;DHT22;53955;52.442;13.284;2022-11-18T13:58:44;2.40;53.40
67050;DHT22;53955;52.442;13.284;2022-11-18T14:01:19;2.20;53.30
67050;DHT22;53955;52.442;13.284;2022-11-18T14:03:50;2.40;53.10
67050;DHT22;53955;52.442;13.284;2022-11-18T14:06:25;2.30;54.10
67050;DHT22;53955;52.442;13.284;2022-11-18T14:09:11;2.30;53.60
67050;DHT22;53955;52.442;13.284;2022-11-18T14:11:42;2.30;53.40
67050;DHT22;53955;52.442;13.284;2022-11-18T14:14:10;2.40;52.70
67050;DHT22;53955;52.442;13.284;2022-11-18T14:16:39;2.30;51.90
67050;DHT22;53955;52.442;13.284;2022-11-18T14:19:27;2.30;52.40
67050;DHT22;53955;52.442;13.284;2022-11-18T14:22:02;2.30;52.70
67050;DHT22;53955;52.442;13.284;2022-11-18T14:24:29;2.00;52.70
67050;DHT22;53955;52.442;13.284;2022-11-18T14:26:56;1.80;53.20
67050;DHT22;53955;52.442;13.284;2022-11-18T14:29:22;2.10;54.20
67050;DHT22;53955;52.442;13.284;2022-11-18T14:32:04;2.00;53.40
67050;DHT22;53955;52.442;13.284;2022-11-18T14:34:39;2.20;53.80
67050;DHT22;53955;52.442;13.284;2022-11-18T14:37:09;2.10;53.30
67050;DHT22;53955;52.442;13.284;2022-11-18T14:39:37;2.10;53.00
67050;DHT22;53955;52.442;13.284;2022-11-18T14:42:04;2.30;52.60
67050;DHT22;53955;52.442;13.284;2022-11-18T14:44:31;2.30;53.10
67050;DHT22;53955;52.442;13.284;2022-11-18T14:47:00;2.30;53.70
67050;DHT22;53955;52.442;13.284;2022-11-18T14:49:28;2.20;54.20
67050;DHT22;53955;52.442;13.284;2022-11-18T14:51:58;2.30;53.70
67050;DHT22;53955;52.442;13.284;2022-11-18T14:54:27;2.40;53.70
67050;DHT22;53955;52.442;13.284;2022-11-18T14:56:55;2.40;54.00
67050;DHT22;53955;52.442;13.284;2022-11-18T14:59:22;2.50;54.50
67050;DHT22;53955;52.442;13.284;2022-11-18T15:01:49;2.50;53.90
67050;DHT22;53955;52.442;13.284;2022-11-18T15:04:15;2.60;53.10
67050;DHT22;53955;52.442;13.284;2022-11-18T15:06:43;2.10;53.50
67050;DHT22;53955;52.442;13.284;2022-11-18T15:09:11;2.20;52.90
67050;DHT22;53955;52.442;13.284;2022-11-18T15:11:38;2.50;52.80
67050;DHT22;53955;52.442;13.284;2022-11-18T15:14:05;2.50;53.80
67050;DHT22;53955;52.442;13.284;2022-11-18T15:16:34;2.40;52.60
67050;DHT22;53955;52.442;13.284;2022-11-18T15:19:03;2.20;52.20
67050;DHT22;53955;52.442;13.284;2022-11-18T15:21:30;2.20;53.50
67050;DHT22;53955;52.442;13.284;2022-11-18T15:23:57;2.20;53.00
67050;DHT22;53955;52.442;13.284;2022-11-18T15:26:26;2.40;51.90
67050;DHT22;53955;52.442;13.284;2022-11-18T15:28:55;2.20;51.10
67050;DHT22;53955;52.442;13.284;2022-11-18T15:31:23;2.30;52.00
67050;DHT22;53955;52.442;13.284;2022-11-18T15:33:50;2.20;50.90
67050;DHT22;53955;52.442;13.284;2022-11-18T15:36:18;2.40;51.30
67050;DHT22;53955;52.442;13.284;2022-11-18T15:38:46;2.10;51.40
67050;DHT22;53955;52.442;13.284;2022-11-18T15:41:15;2.20;52.10
67050;DHT22;53955;52.442;13.284;2022-11-18T15:43:44;2.30;51.40
67050;DHT22;53955;52.442;13.284;2022-11-18T15:46:10;2.30;51.20
67050;DHT22;53955;52.442;13.284;2022-11-18T15:48:37;2.40;52.00
67050;DHT22;53955;52.442;13.284;2022-11-18T15:51:04;2.40;51.50
67050;DHT22;53955;52.442;13.284;2022-11-18T15:53:31;2.40;52.60
67050;DHT22;53955;52.442;13.284;2022-11-18T15:56:15;2.60;50.20